Time;durP1;ratioP1;P1;durP2;ratioP2;P2;SDS_P1;SDS_P2;PMS_P1;PMS_P2;Temp;Humidity;BMP_temperature;BMP_pressure;BME280_temperature;BME280_humidity;BME280_pressure;Samples;Min_cycle;Max_cycle;Signal;HPM_P1;HPM_P2
2022/06/25 00:01:16;;;;;;;17.90;11.68;;;;;;;17.06;89.25;100729.03;5030227;28;20037;-51
2022/06/25 00:03:42;;;;;;;18.30;11.40;;;;;;;17.00;89.52;100720.88;5029794;28;20018;-51
2022/06/25 00:06:08;;;;;;;18.20;11.52;;;;;;;16.97;89.67;100727.19;5028804;28;20033;-48
2022/06/25 00:08:35;;;;;;;17.55;11.07;;;;;;;16.97;89.67;100727.19;5029940;28;20029;-49
2022/06/25 00:11:00;;;;;;;17.55;11.10;;;;;;;16.96;89.75;100733.94;5029946;28;20118;-49
2022/06/25 00:13:26;;;;;;;17.48;10.85;;;;;;;16.97;89.50;100731.97;5030161;28;20476;-50
2022/06/25 00:15:51;;;;;;;16.98;10.90;;;;;;;16.94;89.71;100727.91;5028863;28;20033;-51
2022/06/25 00:18:17;;;;;;;17.08;10.82;;;;;;;16.93;89.36;100734.66;5029673;28;20048;-50
2022/06/25 00:20:44;;;;;;;17.85;11.05;;;;;;;16.89;89.85;100738.47;5030487;28;20506;-50
2022/06/25 00:23:10;;;;;;;17.30;11.50;;;;;;;16.88;89.90;100745.22;5030616;28;20118;-50
2022/06/25 00:25:35;;;;;;;17.88;11.20;;;;;;;16.86;90.07;100745.59;5030485;28;20099;-51
2022/06/25 00:28:01;;;;;;;17.80;11.05;;;;;;;16.84;90.10;100740.34;5029974;28;20030;-50
2022/06/25 00:30:26;;;;;;;18.05;11.40;;;;;;;16.85;89.74;100741.16;5029908;28;20057;-49
2022/06/25 00:32:52;;;;;;;18.23;11.35;;;;;;;16.79;90.20;100739.78;5028448;28;20163;-53
2022/06/25 00:35:17;;;;;;;17.67;10.45;;;;;;;16.80;90.06;100741.41;5034212;28;20025;-51
2022/06/25 00:37:43;;;;;;;16.95;10.27;;;;;;;16.76;89.90;100738.50;5034229;28;20101;-52
2022/06/25 00:40:10;;;;;;;16.83;11.20;;;;;;;16.73;90.05;100738.38;5032958;28;20029;-52
2022/06/25 00:42:35;;;;;;;17.10;10.55;;;;;;;16.75;89.79;100738.84;5033616;28;20140;-52
2022/06/25 00:45:00;;;;;;;17.30;10.85;;;;;;;16.77;89.89;100742.91;5031803;28;20037;-50
2022/06/25 00:47:26;;;;;;;17.58;10.10;;;;;;;16.74;89.38;100740.00;5033707;28;20112;-54
2022/06/25 00:49:52;;;;;;;17.27;10.40;;;;;;;16.74;89.60;100751.16;5033479;28;20022;-52
2022/06/25 00:52:20;;;;;;;16.00;9.98;;;;;;;16.76;89.11;100743.25;5033856;28;20060;-53
2022/06/25 00:54:51;;;;;;;16.67;10.95;;;;;;;16.65;88.82;100732.56;5033744;28;20037;-53
2022/06/25 00:57:24;;;;;;;17.40;9.90;;;;;;;16.66;89.10;100731.41;5033498;28;20082;-50
2022/06/25 00:59:50;;;;;;;16.23;10.40;;;;;;;16.70;89.14;100742.69;5033933;28;20036;-48
2022/06/25 01:02:17;;;;;;;16.58;10.15;;;;;;;16.73;88.44;100744.78;5032332;28;20029;-50
2022/06/25 01:04:42;;;;;;;17.08;10.38;;;;;;;16.75;88.20;100759.22;5033794;28;20079;-48
2022/06/25 01:07:08;;;;;;;18.08;10.00;;;;;;;16.77;88.32;100761.66;5033477;28;20427;-48
2022/06/25 01:09:35;;;;;;;17.85;10.60;;;;;;;16.73;88.17;100772.72;5033485;28;20033;-48
2022/06/25 01:12:01;;;;;;;16.33;9.90;;;;;;;16.73;88.23;100764.34;5033161;28;20053;-52
2022/06/25 01:14:26;;;;;;;16.35;10.77;;;;;;;16.73;88.50;100763.50;5034162;28;20026;-50
2022/06/25 01:16:51;;;;;;;15.57;9.60;;;;;;;16.74;88.08;100763.19;5033834;28;20034;-49
2022/06/25 01:19:17;;;;;;;15.73;10.27;;;;;;;16.75;88.16;100766.78;5033312;28;20025;-50
2022/06/25 01:21:42;;;;;;;16.38;10.23;;;;;;;16.69;87.97;100768.97;5033909;28;20017;-50
2022/06/25 01:24:08;;;;;;;16.92;10.35;;;;;;;16.69;88.13;100766.19;5032301;28;20171;-48
2022/06/25 01:26:40;;;;;;;16.20;9.80;;;;;;;16.68;88.16;100770.97;5032755;28;20048;-50
2022/06/25 01:29:07;;;;;;;18.63;10.43;;;;;;;16.65;88.03;100777.25;5033625;28;20029;-49
2022/06/25 01:31:33;;;;;;;18.05;10.30;;;;;;;16.63;88.78;100768.41;5033996;28;20021;-49
2022/06/25 01:33:59;;;;;;;16.48;10.00;;;;;;;16.59;88.48;100781.44;5033238;28;20025;-48
2022/06/25 01:36:25;;;;;;;16.85;10.40;;;;;;;16.58;88.31;100779.03;5032913;28;20543;-48
2022/06/25 01:38:50;;;;;;;17.13;9.93;;;;;;;16.55;88.73;100780.50;5032967;28;20025;-48
2022/06/25 01:41:15;;;;;;;16.50;10.32;;;;;;;16.53;88.58;100777.28;5033008;28;20076;-49
2022/06/25 01:43:41;;;;;;;17.30;10.20;;;;;;;16.49;88.73;100784.69;5031701;28;20029;-50
2022/06/25 01:46:08;;;;;;;18.75;11.00;;;;;;;16.51;88.76;100788.78;5030980;28;20029;-48
2022/06/25 01:48:33;;;;;;;15.07;10.15;;;;;;;16.47;88.64;100790.66;5015195;28;20112;-49
2022/06/25 01:50:59;;;;;;;17.48;10.40;;;;;;;16.45;88.81;100798.53;5032521;28;20064;-51
2022/06/25 01:53:24;;;;;;;16.30;10.70;;;;;;;16.42;88.75;100804.00;5032743;28;20032;-54
2022/06/25 01:55:49;;;;;;;17.58;10.88;;;;;;;16.40;88.93;100806.34;5033236;28;20438;-53
2022/06/25 01:58:15;;;;;;;17.42;10.43;;;;;;;16.38;88.72;100796.31;5033210;28;20100;-50
2022/06/25 02:00:41;;;;;;;17.55;10.32;;;;;;;16.32;88.90;100803.31;5030215;28;20433;-51
2022/06/25 02:03:06;;;;;;;16.48;10.25;;;;;;;16.28;89.64;100810.72;5032704;28;20534;-51
2022/06/25 02:08:17;;;;;;;17.30;10.20;;;;;;;16.20;89.46;100815.25;5032530;28;20041;-49
2022/06/25 02:10:43;;;;;;;16.83;10.63;;;;;;;16.19;89.58;100822.00;5032209;28;20053;-49
2022/06/25 02:13:09;;;;;;;20.02;11.00;;;;;;;16.17;89.70;100817.91;5032030;28;20477;-52
2022/06/25 02:15:35;;;;;;;18.38;10.18;;;;;;;16.13;89.75;100825.34;5032086;28;20036;-49
2022/06/25 02:18:00;;;;;;;19.73;10.73;;;;;;;16.09;89.89;100822.44;5031938;28;20030;-53
2022/06/25 02:20:26;;;;;;;18.25;10.05;;;;;;;16.09;89.65;100827.19;5030733;28;20052;-51
2022/06/25 02:22:51;;;;;;;17.75;10.38;;;;;;;16.06;89.56;100835.09;5032309;28;20543;-53
2022/06/25 02:25:17;;;;;;;17.67;10.75;;;;;;;16.05;89.57;100835.44;5054733;23;20049;-49
2022/06/25 02:27:44;;;;;;;18.23;11.00;;;;;;;16.02;89.57;100841.69;5053733;28;20159;-51
2022/06/25 02:30:10;;;;;;;17.27;11.13;;;;;;;15.98;89.92;100849.94;5052740;28;20549;-51
2022/06/25 02:32:35;;;;;;;18.20;10.90;;;;;;;15.95;89.92;100842.28;5052642;28;20108;-52
2022/06/25 02:35:01;;;;;;;18.60;10.93;;;;;;;15.92;89.95;100840.16;5052702;28;20526;-50
2022/06/25 02:37:26;;;;;;;17.20;10.88;;;;;;;15.91;90.03;100846.91;5051985;28;20408;-52
2022/06/25 02:39:51;;;;;;;17.38;10.50;;;;;;;15.89;89.82;100844.47;5067993;28;20056;-53
2022/06/25 02:42:16;;;;;;;17.55;10.50;;;;;;;15.88;89.55;100842.00;5052328;28;20040;-53
2022/06/25 02:44:42;;;;;;;16.95;10.30;;;;;;;15.88;89.58;100851.19;5052560;28;20494;-51
2022/06/25 02:47:07;;;;;;;17.70;10.18;;;;;;;15.87;89.21;100863.50;5052317;28;20025;-52
2022/06/25 02:49:32;;;;;;;19.70;10.80;;;;;;;15.85;89.40;100862.22;5052404;28;20142;-50
2022/06/25 02:51:58;;;;;;;17.70;10.23;;;;;;;15.82;89.63;100858.09;5052615;28;20032;-50
2022/06/25 02:54:23;;;;;;;18.02;10.73;;;;;;;15.82;89.71;100862.88;5052275;28;20025;-51
2022/06/25 02:59:38;;;;;;;20.42;11.27;;;;;;;15.78;89.86;100864.69;5052463;28;20036;-53
2022/06/25 03:02:03;;;;;;;16.38;10.60;;;;;;;15.75;90.03;100869.00;5052434;28;20029;-52
2022/06/25 03:04:29;;;;;;;18.58;10.52;;;;;;;15.77;90.14;100863.09;5052361;28;20094;-51
2022/06/25 03:06:54;;;;;;;18.60;10.65;;;;;;;15.73;90.03;100872.13;5052556;28;20025;-51
2022/06/25 03:09:19;;;;;;;20.25;11.15;;;;;;;15.70;90.11;100867.22;5050342;28;20025;-51
2022/06/25 03:11:45;;;;;;;17.55;10.38;;;;;;;15.68;90.20;100874.31;5050817;28;20491;-50
2022/06/25 03:14:11;;;;;;;18.83;10.60;;;;;;;15.63;90.61;100880.91;5050118;28;20029;-51
2022/06/25 03:16:36;;;;;;;18.70;11.70;;;;;;;15.61;90.73;100888.78;5050312;28;20028;-50
2022/06/25 03:19:02;;;;;;;18.48;11.55;;;;;;;15.58;90.91;100879.13;5050866;28;20029;-51
2022/06/25 03:21:27;;;;;;;19.75;11.43;;;;;;;15.55;91.07;100881.78;5050737;28;20107;-54
2022/06/25 03:23:53;;;;;;;18.08;11.25;;;;;;;15.51;91.39;100881.66;5051470;28;20039;-53
2022/06/25 03:26:18;;;;;;;18.83;11.20;;;;;;;15.49;91.23;100883.16;5051418;28;20045;-52
2022/06/25 03:28:43;;;;;;;18.23;11.40;;;;;;;15.47;91.65;100891.84;5051568;28;20094;-52
2022/06/25 03:31:09;;;;;;;19.60;11.55;;;;;;;15.46;91.73;100887.41;5051265;28;20089;-51
2022/06/25 03:33:34;;;;;;;19.73;11.50;;;;;;;15.46;91.82;100886.63;5051074;28;20033;-52
2022/06/25 03:35:59;;;;;;;19.75;12.07;;;;;;;15.44;91.78;100882.19;5051230;28;20021;-51
2022/06/25 03:38:25;;;;;;;19.98;11.75;;;;;;;15.47;91.96;100888.25;5051459;28;20075;-53
2022/06/25 03:41:32;;;;;;;19.95;12.55;;;;;;;15.47;91.86;100891.84;5050687;28;20559;-52
2022/06/25 03:43:35;;;;;;;19.85;11.70;;;;;;;15.49;91.71;100891.53;5051135;28;20037;-50
2022/06/25 03:46:00;;;;;;;19.80;11.70;;;;;;;15.51;91.88;100887.22;5050640;28;20083;-51
2022/06/25 03:48:26;;;;;;;19.33;11.98;;;;;;;15.78;91.81;100884.22;5049126;28;20154;-51
2022/06/25 03:50:51;;;;;;;17.50;10.82;;;;;;;16.24;89.67;100887.13;5050885;28;20514;-50
2022/06/25 03:53:16;;;;;;;18.02;11.15;;;;;;;16.76;86.64;100880.97;5050871;28;20106;-50
2022/06/25 03:55:41;;;;;;;18.40;10.85;;;;;;;17.23;84.29;100879.72;5051062;28;20119;-51
2022/06/25 03:58:07;;;;;;;18.52;10.52;;;;;;;17.67;81.98;100889.41;5051097;28;20033;-51
2022/06/25 04:00:32;;;;;;;17.17;10.27;;;;;;;17.82;80.86;100891.47;5050826;28;20029;-49
2022/06/25 04:02:57;;;;;;;18.13;10.13;;;;;;;17.62;81.37;100893.25;5050992;28;20025;-51
2022/06/25 04:05:23;;;;;;;18.02;10.30;;;;;;;17.36;82.15;100894.47;5051239;28;20056;-51
2022/06/25 04:07:49;;;;;;;17.40;11.10;;;;;;;17.19;83.55;100897.53;5050558;28;20507;-51
2022/06/25 04:10:14;;;;;;;18.67;10.65;;;;;;;17.06;83.69;100893.94;5050318;28;20104;-51
2022/06/25 04:12:40;;;;;;;18.13;11.13;;;;;;;17.02;84.68;100895.78;5050724;28;20081;-52
2022/06/25 04:15:05;;;;;;;19.75;11.38;;;;;;;16.99;85.10;100889.75;5050721;28;20110;-52
2022/06/25 04:17:30;;;;;;;17.88;10.70;;;;;;;16.99;85.51;100898.13;5050763;28;20037;-50
2022/06/25 04:19:56;;;;;;;18.80;11.13;;;;;;;16.98;85.58;100895.66;5050698;28;20039;-52
2022/06/25 04:22:21;;;;;;;18.83;10.85;;;;;;;16.95;85.42;100894.38;5050683;28;20075;-52
2022/06/25 04:24:46;;;;;;;18.83;11.20;;;;;;;16.89;86.63;100887.38;5050507;28;20554;-53
2022/06/25 04:29:03;;;;;;;19.40;11.13;;;;;;;16.85;86.44;100897.59;5050523;28;20076;-53
2022/06/25 04:29:57;;;;;;;18.85;10.70;;;;;;;16.80;86.89;100907.03;5050305;28;20044;-54
2022/06/25 04:32:22;;;;;;;17.88;11.07;;;;;;;16.79;87.08;100907.38;5050636;28;20029;-52
2022/06/25 04:34:48;;;;;;;18.70;11.07;;;;;;;16.77;87.03;100910.50;5050645;28;20056;-53
2022/06/25 04:37:13;;;;;;;17.10;10.55;;;;;;;16.75;87.36;100912.84;5050646;28;20116;-52
2022/06/25 04:39:38;;;;;;;18.23;11.00;;;;;;;16.72;87.22;100913.53;5050587;28;20467;-52
2022/06/25 04:42:04;;;;;;;17.08;11.18;;;;;;;16.70;88.06;100918.66;5050181;28;20456;-53
2022/06/25 04:44:29;;;;;;;20.45;11.48;;;;;;;16.66;88.25;100921.31;5050454;28;20112;-52
2022/06/25 04:46:55;;;;;;;18.73;11.38;;;;;;;16.67;88.64;100919.38;5050726;28;20032;-53
2022/06/25 04:49:20;;;;;;;18.52;10.70;;;;;;;16.71;88.87;100919.50;5050182;28;20080;-50
2022/06/25 04:51:45;;;;;;;17.55;11.00;;;;;;;16.79;88.28;100924.16;5050480;28;20040;-50
2022/06/25 04:54:11;;;;;;;18.10;10.50;;;;;;;16.88;88.33;100929.63;5050568;28;20064;-53
2022/06/25 04:56:36;;;;;;;18.83;10.73;;;;;;;16.97;88.48;100925.59;5050004;28;20021;-50
2022/06/25 04:59:02;;;;;;;17.77;10.27;;;;;;;17.11;87.73;100928.06;5049721;28;20033;-56
2022/06/25 05:01:27;;;;;;;17.15;10.60;;;;;;;17.35;87.11;100934.78;5050243;28;20040;-48
2022/06/25 05:03:52;;;;;;;18.38;11.05;;;;;;;17.53;86.67;100932.56;5049941;28;20026;-50
2022/06/25 05:06:17;;;;;;;17.65;10.25;;;;;;;17.74;86.23;100940.00;5050225;28;20543;-52
2022/06/25 05:08:43;;;;;;;18.83;10.50;;;;;;;17.87;85.78;100935.97;5050129;28;20021;-51
2022/06/25 05:11:08;;;;;;;17.85;10.55;;;;;;;17.99;84.39;100945.56;5050003;28;20032;-52
2022/06/25 05:13:34;;;;;;;19.15;10.13;;;;;;;18.05;84.17;100936.56;5050348;28;20033;-53
2022/06/25 05:15:59;;;;;;;17.13;10.30;;;;;;;18.16;83.71;100934.06;5050048;28;20033;-53
2022/06/25 05:18:24;;;;;;;20.35;10.88;;;;;;;18.20;82.58;100942.56;5050123;28;20115;-53
2022/06/25 05:20:50;;;;;;;17.90;10.95;;;;;;;18.18;82.53;100944.91;5052112;28;20475;-53
2022/06/25 05:23:15;;;;;;;17.50;10.73;;;;;;;18.19;83.01;100940.91;5053876;28;20025;-53
2022/06/25 05:25:41;;;;;;;21.08;10.50;;;;;;;18.18;82.40;100951.31;5053884;28;20131;-51
2022/06/25 05:28:07;;;;;;;16.95;10.05;;;;;;;18.18;81.80;100947.72;5052176;28;20379;-51
2022/06/25 05:30:33;;;;;;;16.67;10.30;;;;;;;18.14;81.92;100947.59;5053622;28;20075;-50
2022/06/25 05:32:59;;;;;;;17.30;9.88;;;;;;;18.16;81.97;100944.44;5054223;28;20151;-53
2022/06/25 05:35:24;;;;;;;16.33;10.38;;;;;;;18.20;81.82;100943.38;5054069;28;20059;-52
2022/06/25 05:37:50;;;;;;;18.50;10.65;;;;;;;18.28;82.13;100949.19;5054007;28;20044;-55
2022/06/25 05:40:15;;;;;;;16.15;9.63;;;;;;;18.33;80.57;100963.75;5053999;28;20021;-55
2022/06/25 05:42:40;;;;;;;17.77;10.27;;;;;;;18.43;81.03;100956.00;5053724;28;20471;-55
2022/06/25 05:45:07;;;;;;;17.40;10.15;;;;;;;18.54;80.75;100959.91;5053835;28;20120;-54
2022/06/25 05:47:32;;;;;;;18.50;9.35;;;;;;;18.66;79.70;100962.63;5053933;28;20029;-55
2022/06/25 05:49:57;;;;;;;17.05;10.10;;;;;;;18.80;78.08;100970.59;5053962;28;20032;-55
2022/06/25 05:52:23;;;;;;;16.00;9.48;;;;;;;18.99;77.91;100966.31;5053730;28;20033;-56
2022/06/25 05:54:48;;;;;;;15.77;9.50;;;;;;;19.14;76.26;100973.09;5053252;28;20539;-55
2022/06/25 05:57:14;;;;;;;16.70;10.40;;;;;;;19.26;75.65;100975.03;5053320;28;20041;-54
2022/06/25 05:59:39;;;;;;;16.08;9.65;;;;;;;19.33;75.55;100969.59;5053425;28;20108;-55
2022/06/25 06:02:05;;;;;;;17.38;9.23;;;;;;;19.39;75.12;100986.94;5053353;28;20033;-55
2022/06/25 06:04:30;;;;;;;14.80;8.82;;;;;;;19.44;75.34;100987.50;5053481;28;20025;-55
2022/06/25 06:06:55;;;;;;;16.15;8.80;;;;;;;19.43;74.33;100985.03;5052739;28;20025;-54
2022/06/25 06:09:20;;;;;;;13.70;8.88;;;;;;;19.39;74.19;100989.75;5051476;28;20104;-54
2022/06/25 06:11:46;;;;;;;16.67;9.60;;;;;;;19.40;74.61;100997.81;5051740;28;20044;-53
2022/06/25 06:14:11;;;;;;;16.30;9.80;;;;;;;19.43;74.94;100999.06;5051670;28;20160;-53
2022/06/25 06:16:37;;;;;;;15.68;9.07;;;;;;;19.53;75.00;100998.50;5052072;28;20029;-52
2022/06/25 06:19:02;;;;;;;14.75;9.10;;;;;;;19.64;74.09;101002.38;5052971;28;20032;-54
2022/06/25 06:21:27;;;;;;;16.05;9.13;;;;;;;19.60;73.06;101000.69;5052878;28;20055;-54
2022/06/25 06:23:53;;;;;;;14.88;9.15;;;;;;;19.49;72.41;100998.41;5053146;28;20032;-54
2022/06/25 06:26:18;;;;;;;15.80;9.60;;;;;;;19.45;72.84;101005.13;5052840;28;20166;-50
2022/06/25 06:28:43;;;;;;;15.90;9.52;;;;;;;19.42;73.82;101008.66;5052910;28;20484;-54
2022/06/25 06:31:09;;;;;;;15.88;9.00;;;;;;;19.43;72.90;101008.31;5052676;28;20535;-54
2022/06/25 06:33:35;;;;;;;16.15;9.05;;;;;;;19.49;73.57;101008.84;5051436;28;20029;-54
2022/06/25 06:36:01;;;;;;;16.55;9.55;;;;;;;19.51;72.29;101006.47;5052619;28;20029;-55
2022/06/25 06:38:26;;;;;;;16.75;9.13;;;;;;;19.48;72.40;101010.81;5052224;28;20133;-53
2022/06/25 06:40:51;;;;;;;16.05;9.52;;;;;;;19.49;72.08;101000.44;5052415;28;20475;-54
2022/06/25 06:43:16;;;;;;;16.20;9.27;;;;;;;19.54;71.97;100999.34;5052689;28;20072;-54
2022/06/25 06:45:42;;;;;;;15.82;9.10;;;;;;;19.51;71.41;101000.84;5052525;28;20452;-53
2022/06/25 06:48:07;;;;;;;14.95;8.95;;;;;;;19.44;72.28;101007.13;5052387;28;20074;-54
2022/06/25 06:50:32;;;;;;;14.95;9.27;;;;;;;19.45;72.55;101008.75;5052113;28;20029;-53
2022/06/25 06:52:58;;;;;;;15.75;9.32;;;;;;;19.49;73.07;101008.84;5052592;28;20032;-55
2022/06/25 06:55:23;;;;;;;16.00;9.40;;;;;;;19.56;71.93;101005.38;5052447;28;20159;-55
2022/06/25 06:57:48;;;;;;;15.77;9.20;;;;;;;19.69;71.79;101003.28;5052264;28;20093;-54
2022/06/25 07:00:14;;;;;;;16.77;9.25;;;;;;;19.66;71.73;101016.03;5052488;28;20082;-53
2022/06/25 07:02:39;;;;;;;15.95;9.27;;;;;;;19.69;72.54;101011.72;5052300;28;20033;-54
2022/06/25 07:05:05;;;;;;;15.27;8.85;;;;;;;19.61;71.75;101013.53;5052313;28;20356;-54
2022/06/25 07:07:30;;;;;;;16.27;8.95;;;;;;;19.55;71.97;101017.81;5050492;28;20032;-52
2022/06/25 07:09:55;;;;;;;18.13;9.45;;;;;;;19.47;72.55;101019.63;5052201;28;20106;-54
2022/06/25 07:12:21;;;;;;;16.52;8.70;;;;;;;19.53;72.87;101017.34;5052193;28;20017;-54
2022/06/25 07:14:46;;;;;;;16.85;9.73;;;;;;;19.54;72.73;101016.16;5052016;28;20029;-54
2022/06/25 07:17:11;;;;;;;16.27;9.63;;;;;;;19.64;72.70;101022.03;5052023;28;20112;-53
2022/06/25 07:19:37;;;;;;;18.30;9.20;;;;;;;19.77;71.66;101019.13;5048596;28;20036;-53
2022/06/25 07:22:02;;;;;;;17.02;9.38;;;;;;;19.90;71.54;101017.03;5051973;28;20078;-52
2022/06/25 07:24:27;;;;;;;15.95;9.80;;;;;;;20.04;71.08;101020.16;5051437;28;20094;-54
2022/06/25 07:26:53;;;;;;;17.58;9.45;;;;;;;20.24;70.98;101022.97;5051472;28;20030;-54
2022/06/25 07:29:18;;;;;;;17.27;9.60;;;;;;;20.36;69.43;101017.22;5051394;28;20028;-56
2022/06/25 07:31:44;;;;;;;16.58;9.63;;;;;;;20.38;69.32;101022.47;5051461;28;20068;-52
2022/06/25 07:34:09;;;;;;;15.32;9.27;;;;;;;20.44;70.59;101018.19;5050286;28;20029;-52
2022/06/25 07:36:34;;;;;;;14.52;8.32;;;;;;;20.65;70.10;101020.63;5051923;28;20037;-53
2022/06/25 07:39:02;;;;;;;16.67;8.98;;;;;;;20.81;68.95;101025.34;5051745;28;20417;-53
2022/06/25 07:41:28;;;;;;;12.32;8.07;;;;;;;20.81;67.94;101022.53;5051290;28;20029;-52
2022/06/25 07:43:53;;;;;;;16.13;8.98;;;;;;;20.79;67.78;101019.28;5050815;28;20083;-51
2022/06/25 07:46:19;;;;;;;15.73;9.48;;;;;;;20.91;67.54;101018.31;5051584;28;20017;-52
2022/06/25 07:48:45;;;;;;;16.23;9.00;;;;;;;21.01;67.52;101020.53;5051269;28;20454;-53
2022/06/25 07:53:55;;;;;;;12.55;8.30;;;;;;;21.00;67.69;101027.34;5051176;28;20098;-50
2022/06/25 07:56:20;;;;;;;13.50;8.40;;;;;;;21.09;67.30;101016.66;5050896;28;20055;-49
2022/06/25 07:58:45;;;;;;;15.57;8.57;;;;;;;21.17;67.04;101026.00;5049795;28;20032;-50
2022/06/25 08:01:11;;;;;;;14.05;8.60;;;;;;;21.11;65.88;101025.50;5049670;28;20036;-53
2022/06/25 08:03:36;;;;;;;14.52;8.63;;;;;;;21.09;65.85;101030.72;5051383;28;20079;-53
2022/06/25 08:06:02;;;;;;;15.25;8.45;;;;;;;21.04;66.51;101033.81;5050047;28;20104;-53
2022/06/25 08:08:27;;;;;;;15.02;8.75;;;;;;;20.96;66.65;101030.09;5050338;28;20089;-53
2022/06/25 08:10:53;;;;;;;14.43;8.20;;;;;;;20.90;67.47;101025.13;5050469;28;20025;-53
2022/06/25 08:13:18;;;;;;;16.88;8.98;;;;;;;20.95;67.80;101028.47;5050355;28;20104;-52
2022/06/25 08:15:44;;;;;;;13.80;8.55;;;;;;;21.12;67.74;101017.91;5050471;28;20396;-52
2022/06/25 08:18:09;;;;;;;16.08;8.70;;;;;;;21.29;65.98;101019.41;5050570;28;20167;-52
2022/06/25 08:20:35;;;;;;;15.32;8.50;;;;;;;21.27;65.44;101016.94;5050587;28;20036;-51
2022/06/25 08:23:00;;;;;;;11.65;8.30;;;;;;;21.14;65.84;101030.38;5050776;28;20495;-53
2022/06/25 08:25:25;;;;;;;14.98;8.98;;;;;;;20.97;65.85;101030.88;5050878;28;20105;-50
2022/06/25 08:27:53;;;;;;;15.20;8.90;;;;;;;20.73;66.94;101036.47;5050634;28;20040;-51
2022/06/25 08:30:20;;;;;;;15.30;9.23;;;;;;;20.55;68.34;101033.25;5050573;28;20036;-52
2022/06/25 08:32:46;;;;;;;14.05;8.75;;;;;;;20.45;69.57;101033.06;5050578;28;20035;-53
2022/06/25 08:35:12;;;;;;;15.68;8.93;;;;;;;20.46;69.98;101038.28;5050484;28;20017;-52
2022/06/25 08:37:39;;;;;;;14.48;8.90;;;;;;;20.50;69.21;101035.59;5050221;28;20025;-52
2022/06/25 08:40:06;;;;;;;16.08;8.73;;;;;;;20.54;69.66;101036.44;5048962;28;20045;-52
2022/06/25 08:42:31;;;;;;;12.07;8.50;;;;;;;20.63;68.90;101034.22;5050131;28;20044;-52
2022/06/25 08:44:57;;;;;;;13.68;8.60;;;;;;;20.66;68.20;101043.91;5050696;28;20100;-51
2022/06/25 08:47:22;;;;;;;15.77;9.60;;;;;;;20.63;68.96;101045.47;5049135;28;20029;-51
2022/06/25 08:49:48;;;;;;;14.43;9.23;;;;;;;20.64;69.14;101049.13;5050549;28;20029;-53
2022/06/25 08:52:15;;;;;;;15.50;8.95;;;;;;;20.64;68.81;101051.94;5050499;28;20053;-51
2022/06/25 08:54:42;;;;;;;15.18;8.80;;;;;;;20.67;68.51;101051.16;5049872;28;20095;-53
2022/06/25 08:57:08;;;;;;;13.48;8.65;;;;;;;20.75;67.50;101044.53;5054914;28;20029;-57
2022/06/25 08:59:34;;;;;;;12.95;8.55;;;;;;;20.79;67.13;101042.59;5054582;28;20039;-52
2022/06/25 09:01:59;;;;;;;15.95;9.10;;;;;;;21.04;67.05;101037.47;5054627;28;20036;-53
2022/06/25 09:04:24;;;;;;;14.25;8.10;;;;;;;21.21;65.70;101034.53;5054598;28;20131;-53
2022/06/25 09:06:50;;;;;;;13.82;8.68;;;;;;;21.44;65.71;101035.31;5053764;28;20025;-53
2022/06/25 09:09:16;;;;;;;13.65;8.38;;;;;;;21.57;64.20;101044.38;5054293;28;20072;-53
2022/06/25 09:11:57;;;;;;;13.98;8.40;;;;;;;21.71;65.10;101035.38;5054455;28;20112;-53
2022/06/25 09:14:28;;;;;;;14.27;8.45;;;;;;;21.77;64.54;101039.47;5054404;28;20153;-53
2022/06/25 09:16:59;;;;;;;14.27;8.50;;;;;;;21.61;64.04;101041.66;5054355;28;20025;-51
2022/06/25 09:19:38;;;;;;;14.75;8.77;;;;;;;21.46;65.82;101040.56;5054093;28;20083;-50
2022/06/25 09:22:06;;;;;;;14.02;8.60;;;;;;;21.23;64.67;101034.94;5054109;28;20048;-50
2022/06/25 09:24:58;;;;;;;12.85;8.27;;;;;;;21.06;66.48;101044.72;5053858;28;20100;-52
2022/06/25 09:27:38;;;;;;;13.50;8.55;;;;;;;20.93;66.91;101049.69;5054047;28;20111;-51
2022/06/25 09:30:11;;;;;;;14.75;9.27;;;;;;;20.89;67.98;101049.59;5053960;28;20110;-51
2022/06/25 09:32:47;;;;;;;14.77;9.23;;;;;;;21.00;67.45;101056.25;5054072;28;20125;-54
2022/06/25 09:35:14;;;;;;;15.90;9.23;;;;;;;21.17;66.05;101051.31;5054137;28;20518;-51
2022/06/25 09:37:40;;;;;;;17.08;9.13;;;;;;;21.40;67.60;101028.00;5053919;28;20033;-51
2022/06/25 09:40:07;;;;;;;14.63;9.32;;;;;;;21.72;66.87;101045.44;5053766;28;20481;-54
2022/06/25 09:42:34;;;;;;;16.70;9.25;;;;;;;21.85;64.38;101042.44;5053730;28;20071;-54
2022/06/25 09:45:05;;;;;;;14.48;8.93;;;;;;;21.85;64.20;101039.63;5053819;28;20057;-51
2022/06/25 09:47:34;;;;;;;14.70;8.80;;;;;;;21.88;64.33;101038.84;5053654;28;20454;-53
2022/06/25 09:50:18;;;;;;;14.88;9.20;;;;;;;21.88;65.13;101028.41;5053624;28;20143;-55
2022/06/25 09:52:52;;;;;;;14.95;9.35;;;;;;;21.80;64.68;101040.75;5053467;28;20025;-53
2022/06/25 09:55:18;;;;;;;14.68;9.18;;;;;;;21.80;65.10;101047.19;5053664;28;20036;-54
2022/06/25 09:57:45;;;;;;;15.00;9.23;;;;;;;21.72;64.73;101044.66;5053572;28;20570;-53
2022/06/25 10:00:11;;;;;;;13.90;9.18;;;;;;;21.69;66.15;101042.59;5053843;28;20459;-50
2022/06/25 10:02:37;;;;;;;14.95;9.25;;;;;;;21.57;65.09;101047.19;5053400;28;20040;-51
2022/06/25 10:05:03;;;;;;;14.02;9.68;;;;;;;21.48;64.84;101044.66;5053434;28;20025;-52
2022/06/25 10:10:19;;;;;;;15.02;9.38;;;;;;;21.81;64.86;101040.38;5053552;28;20135;-53
2022/06/25 10:12:49;;;;;;;14.25;9.50;;;;;;;21.83;64.46;101042.78;5053075;28;20041;-52
2022/06/25 10:15:17;;;;;;;15.02;9.60;;;;;;;21.70;65.52;101049.84;5053190;28;20048;-49
2022/06/25 10:17:44;;;;;;;14.70;9.52;;;;;;;21.69;66.02;101051.84;5052983;28;20419;-52
2022/06/25 10:20:10;;;;;;;15.00;9.40;;;;;;;21.78;65.67;101049.56;5053284;28;20027;-52
2022/06/25 10:22:36;;;;;;;16.02;9.68;;;;;;;21.90;65.34;101048.56;5053313;28;20522;-54
2022/06/25 10:25:03;;;;;;;13.98;9.52;;;;;;;22.10;63.93;101051.25;5051402;28;20071;-54
2022/06/25 10:27:28;;;;;;;14.82;8.98;;;;;;;22.39;63.83;101046.81;5053202;28;20060;-51
2022/06/25 10:29:57;;;;;;;14.02;8.90;;;;;;;22.74;62.59;101048.44;5053037;28;20060;-51
2022/06/25 10:32:23;;;;;;;15.45;9.43;;;;;;;23.02;60.08;101049.16;5052921;28;20036;-52
2022/06/25 10:35:01;;;;;;;12.57;9.05;;;;;;;23.15;60.63;101044.03;5052873;28;20380;-52
2022/06/25 10:37:26;;;;;;;12.10;8.77;;;;;;;23.21;59.00;101043.34;5053142;28;20028;-53
2022/06/25 10:39:56;;;;;;;15.23;8.85;;;;;;;23.27;58.32;101046.63;5052963;28;20400;-50
2022/06/25 10:45:31;;;;;;;14.05;8.40;;;;;;;23.48;58.91;101039.50;5053042;28;20118;-53
2022/06/25 10:47:58;;;;;;;12.32;7.80;;;;;;;23.47;56.59;101044.34;5052790;28;20420;-55
2022/06/25 10:50:25;;;;;;;12.07;8.20;;;;;;;23.69;57.07;101041.72;5052478;28;20028;-52
2022/06/25 10:53:02;;;;;;;12.45;8.07;;;;;;;23.90;56.31;101038.22;5052451;28;20033;-54
2022/06/25 10:55:38;;;;;;;10.98;7.90;;;;;;;24.20;56.75;101039.22;5052856;28;20095;-53
2022/06/25 10:58:12;;;;;;;12.70;8.07;;;;;;;24.57;55.60;101044.63;5051453;28;20127;-51
2022/06/25 11:01:01;;;;;;;;;;;;;;;24.72;55.73;101039.03;5053140;28;20042;-54
2022/06/25 11:03:30;;;;;;;10.57;7.45;;;;;;;24.66;53.11;101043.44;5041056;28;20389;-52
2022/06/25 11:06:21;;;;;;;11.35;7.80;;;;;;;24.49;54.05;101026.03;5052827;28;20036;-54
2022/06/25 11:08:47;;;;;;;9.65;7.65;;;;;;;24.48;52.37;101027.22;5052647;28;20025;-53
2022/06/25 11:11:21;;;;;;;9.02;7.68;;;;;;;24.80;53.01;101025.75;5052451;28;20052;-52
2022/06/25 11:13:47;;;;;;;10.15;7.53;;;;;;;25.05;52.32;101012.44;5052515;28;20067;-52
2022/06/25 11:16:14;;;;;;;10.23;7.35;;;;;;;25.41;50.71;101014.50;5052377;28;20017;-53
2022/06/25 11:18:56;;;;;;;11.13;7.70;;;;;;;25.54;49.54;101017.75;5051208;28;20025;-53
2022/06/25 11:21:34;;;;;;;12.40;7.50;;;;;;;25.51;50.12;101015.69;5052472;28;20104;-52
2022/06/25 11:24:12;;;;;;;9.63;7.50;;;;;;;25.23;50.76;101022.97;5051742;28;20401;-52
2022/06/25 11:29:26;;;;;;;8.68;7.03;;;;;;;25.61;50.95;101028.25;5052006;28;20047;-54